Bastogne — ONHG — position and weather

sailwx.info

Track history (hours):
 
Tides and Currents Weather Stations Pressure Air Temp Water Temp Dewpoint Dewpoint Depression Visibility Wind Speed Wind Dir Waves Ship Positions

Bastogne

Last reported at 2018-Apr-24 20:24 UTC. Time now 2018-Apr-26 03:36 UTC.
Position N 35°54' W 005°30'.

Length 175 m; draft 9.6 m.

Type: Tanker. MMSI: 205612000.

Date/timePositionNaut miles runAvg speedWind from/ knotsBaromVisibWave heightAir tempDewpointWater temp
2018-Apr-24 20:24N 35°54' W 005°30'2 3.8
2018-Apr-24 19:49N 35°55' W 005°32'  
2018-Apr-20 13:20N 38°12' W 010°03'515.0
2018-Apr-20 13:00N 38°16' W 010°04'815.5
2018-Apr-20 12:30N 38°24' W 010°06'815.5
2018-Apr-20 11:58N 38°32' W 010°09'715.5
2018-Apr-20 11:30N 38°39' W 010°10'815.6
2018-Apr-20 11:00N 38°47' W 010°11'915.9
2018-Apr-20 10:26N 38°56' W 010°11'715.9
2018-Apr-20 09:58N 39°03' W 010°11'816.0
2018-Apr-20 09:30N 39°11' W 010°11'815.3
2018-Apr-20 09:00N 39°19' W 010°12'815.3
2018-Apr-20 08:30N 39°26' W 010°12'1715.8
2018-Apr-20 07:26N 39°43' W 010°12'51915.0
2018-Apr-18 20:58N 47°57' W 006°34'3215.1
2018-Apr-18 18:49N 48°26' W 006°10'4511.8
2018-Apr-18 14:58N 49°02' W 005°29'4813.0
2018-Apr-18 11:15N 49°27' W 004°26'415.5
2018-Apr-18 11:00N 49°28' W 004°21'2014.7
2018-Apr-18 09:37N 49°39' W 003°53'213.9
2018-Apr-18 09:30N 49°39' W 003°51'913.1
2018-Apr-18 08:47N 49°44' W 003°39'312.0
2018-Apr-18 08:30N 49°46' W 003°34'612.0
2018-Apr-18 08:00N 49°49' W 003°26'611.6
2018-Apr-18 07:31N 49°51' W 003°18'611.5
2018-Apr-18 07:00N 49°55' W 003°11'611.7
2018-Apr-18 06:30N 49°57' W 003°03'612.9
2018-Apr-18 06:00N 50°00' W 002°54'713.8
2018-Apr-18 05:30N 50°02' W 002°43'714.8
2018-Apr-18 05:00N 50°04' W 002°32'3217.6
2018-Apr-18 03:10N 50°13' W 001°44'319.1
2018-Apr-18 03:01N 50°14' W 001°39'918.8
2018-Apr-18 02:30N 50°16' W 001°25'918.4
2018-Apr-18 02:00N 50°19' W 001°11'2516.3
2018-Apr-18 00:28N 50°24' W 000°32'714.7
2018-Apr-18 00:00N 50°26' W 000°22'714.1
2018-Apr-17 23:31N 50°29' W 000°12'713.5
2018-Apr-17 23:00N 50°31' W 000°02'612.4
2018-Apr-17 22:30N 50°32' E 000°08'611.7
2018-Apr-17 22:00N 50°34' E 000°17'612.1
2018-Apr-17 21:30N 50°35' E 000°26'713.1
2018-Apr-17 21:00N 50°38' E 000°35'714.5
2018-Apr-17 20:30N 50°42' E 000°44'815.6
2018-Apr-17 20:01N 50°47' E 000°54'816.8
2018-Apr-17 19:30N 50°52' E 001°04'917.2
2018-Apr-17 18:57N 50°58' E 001°16'817.4
2018-Apr-17 18:30N 51°03' E 001°25'816.5
2018-Apr-17 18:01N 51°08' E 001°35'815.5
2018-Apr-17 17:30N 51°13' E 001°45'714.6
2018-Apr-17 17:00N 51°20' E 001°51'713.9
2018-Apr-17 16:30N 51°25' E 001°58'713.4
2018-Apr-17 16:00N 51°31' E 002°02'713.2
2018-Apr-17 15:30N 51°36' E 002°09'713.3
2018-Apr-17 15:00N 51°41' E 002°17'613.1
2018-Apr-17 14:30N 51°46' E 002°24'2113.3
2018-Apr-17 12:54N 52°05' E 002°39'615.1
2018-Apr-17 12:30N 52°11' E 002°38'1415.9
2018-Apr-17 11:38N 52°25' E 002°37'516.2
2018-Apr-17 11:21N 52°30' E 002°37'616.4
2018-Apr-17 11:00N 52°35' E 002°37'1516.6
2018-Apr-17 10:07N 52°50' E 002°38'216.7
2018-Apr-17 10:00N 52°52' E 002°38'46615.1
2018-Apr-16 03:05N 60°35' E 004°22'115.8
2018-Apr-16 03:00N 60°36' E 004°23'815.5
2018-Apr-16 02:30N 60°42' E 004°32'612.4
2018-Apr-16 02:00N 60°44' E 004°44'5 9.2
2018-Apr-16 01:30N 60°49' E 004°44'5 9.2
2018-Apr-16 01:00N 60°51' E 004°53'510.6
2018-Apr-16 00:30N 60°49' E 005°03'1 1.0
2018-Apr-15 23:58N 60°49' E 005°03'0 0.0
2018-Apr-15 23:28N 60°49' E 005°03'0 0.0
2018-Apr-15 22:58N 60°49' E 005°03'0 0.0
2018-Apr-15 22:28N 60°49' E 005°03'0 0.0
2018-Apr-15 21:58N 60°49' E 005°03'0 0.0
2018-Apr-15 21:28N 60°49' E 005°03'0 0.0
2018-Apr-15 20:58N 60°49' E 005°03'0 0.0
2018-Apr-15 20:28N 60°49' E 005°03'0 0.0
2018-Apr-15 19:58N 60°49' E 005°03'0 0.0
2018-Apr-15 19:28N 60°49' E 005°03'0 0.0
2018-Apr-15 18:58N 60°49' E 005°03'0 0.0
2018-Apr-15 18:28N 60°49' E 005°03'0 0.0
2018-Apr-15 17:58N 60°49' E 005°03'0 0.0
2018-Apr-15 17:28N 60°49' E 005°03'0 0.0
2018-Apr-15 16:58N 60°49' E 005°03'0 0.0
2018-Apr-15 16:28N 60°49' E 005°03'0 0.0
2018-Apr-15 15:58N 60°49' E 005°03'0 0.0
2018-Apr-15 15:28N 60°49' E 005°03'0 0.0
2018-Apr-15 14:58N 60°49' E 005°03'0 0.0
2018-Apr-15 14:28N 60°49' E 005°03'0 0.0
2018-Apr-15 13:58N 60°49' E 005°03'0 0.0
2018-Apr-15 13:28N 60°49' E 005°03'0 0.0
2018-Apr-15 12:58N 60°49' E 005°03'0 0.0
2018-Apr-15 12:28N 60°49' E 005°03'0 0.0
2018-Apr-15 11:58N 60°49' E 005°03'0 0.0
2018-Apr-15 11:28N 60°49' E 005°03'0 0.0
2018-Apr-15 10:55N 60°49' E 005°03'0 0.0
2018-Apr-15 10:28N 60°49' E 005°03'0 0.0
2018-Apr-15 09:58N 60°49' E 005°03'0 0.0
2018-Apr-15 09:28N 60°49' E 005°03'0 0.0
2018-Apr-15 08:58N 60°49' E 005°03'0 0.0
2018-Apr-15 08:28N 60°49' E 005°03'0 0.0
2018-Apr-15 07:58N 60°49' E 005°03'0 0.0
2018-Apr-15 07:28N 60°49' E 005°03'0 0.0
2018-Apr-15 06:58N 60°49' E 005°03'0 0.0
2018-Apr-15 06:28N 60°49' E 005°03'0 0.0
2018-Apr-15 05:58N 60°49' E 005°03'0 0.0
2018-Apr-15 05:28N 60°49' E 005°03'0 0.0
2018-Apr-15 04:58N 60°49' E 005°03'0 0.0
2018-Apr-15 04:28N 60°49' E 005°03'0 0.0
2018-Apr-15 03:58N 60°49' E 005°03'0 0.0
2018-Apr-15 03:28N 60°49' E 005°03'0 0.0
2018-Apr-15 02:58N 60°49' E 005°03'0 0.0
2018-Apr-15 02:28N 60°49' E 005°03'0 0.0
2018-Apr-15 01:58N 60°49' E 005°03'0 0.0
2018-Apr-15 01:28N 60°49' E 005°03'0 0.0
2018-Apr-15 00:58N 60°49' E 005°03'0 0.0
2018-Apr-15 00:25N 60°49' E 005°03'0 0.0
2018-Apr-14 23:58N 60°49' E 005°03'0 0.0
2018-Apr-14 23:28N 60°49' E 005°03'0 0.0
2018-Apr-14 22:58N 60°49' E 005°03'0 0.0
2018-Apr-14 22:28N 60°49' E 005°03'0 0.0
2018-Apr-14 21:58N 60°49' E 005°03'0 0.0
2018-Apr-14 21:28N 60°49' E 005°03'0 0.0
2018-Apr-14 20:58N 60°49' E 005°03'0 0.0
2018-Apr-14 20:28N 60°49' E 005°03'  
Track history (hours):
 
Tides and Currents Weather Stations Pressure Air Temp Water Temp Dewpoint Dewpoint Depression Visibility Wind Speed Wind Dir Waves Ship Positions

Bastogne

Last reported at 2018-Apr-24 20:24 UTC. Time now 2018-Apr-26 03:36 UTC.
Position N 35°54' W 005°30'.

Length 175 m; draft 9.6 m.

Type: Tanker. MMSI: 205612000.

Date/timePositionNaut miles runAvg speedWind from/ knotsBaromVisibWave heightAir tempDewpointWater temp
2018-Apr-24 20:24N 35°54' W 005°30'2 3.8
2018-Apr-24 19:49N 35°55' W 005°32'  
2018-Apr-20 13:20N 38°12' W 010°03'515.0
2018-Apr-20 13:00N 38°16' W 010°04'815.5
2018-Apr-20 12:30N 38°24' W 010°06'815.5
2018-Apr-20 11:58N 38°32' W 010°09'715.5
2018-Apr-20 11:30N 38°39' W 010°10'815.6
2018-Apr-20 11:00N 38°47' W 010°11'915.9
2018-Apr-20 10:26N 38°56' W 010°11'715.9
2018-Apr-20 09:58N 39°03' W 010°11'816.0
2018-Apr-20 09:30N 39°11' W 010°11'815.3
2018-Apr-20 09:00N 39°19' W 010°12'815.3
2018-Apr-20 08:30N 39°26' W 010°12'1715.8
2018-Apr-20 07:26N 39°43' W 010°12'51915.0
2018-Apr-18 20:58N 47°57' W 006°34'3215.1
2018-Apr-18 18:49N 48°26' W 006°10'4511.8
2018-Apr-18 14:58N 49°02' W 005°29'4813.0
2018-Apr-18 11:15N 49°27' W 004°26'415.5
2018-Apr-18 11:00N 49°28' W 004°21'2014.7
2018-Apr-18 09:37N 49°39' W 003°53'213.9
2018-Apr-18 09:30N 49°39' W 003°51'913.1
2018-Apr-18 08:47N 49°44' W 003°39'312.0
2018-Apr-18 08:30N 49°46' W 003°34'612.0
2018-Apr-18 08:00N 49°49' W 003°26'611.6
2018-Apr-18 07:31N 49°51' W 003°18'611.5
2018-Apr-18 07:00N 49°55' W 003°11'611.7
2018-Apr-18 06:30N 49°57' W 003°03'612.9
2018-Apr-18 06:00N 50°00' W 002°54'713.8
2018-Apr-18 05:30N 50°02' W 002°43'714.8
2018-Apr-18 05:00N 50°04' W 002°32'3217.6
2018-Apr-18 03:10N 50°13' W 001°44'319.1
2018-Apr-18 03:01N 50°14' W 001°39'918.8
2018-Apr-18 02:30N 50°16' W 001°25'918.4
2018-Apr-18 02:00N 50°19' W 001°11'2516.3
2018-Apr-18 00:28N 50°24' W 000°32'714.7
2018-Apr-18 00:00N 50°26' W 000°22'714.1
2018-Apr-17 23:31N 50°29' W 000°12'713.5
2018-Apr-17 23:00N 50°31' W 000°02'612.4
2018-Apr-17 22:30N 50°32' E 000°08'611.7
2018-Apr-17 22:00N 50°34' E 000°17'612.1
2018-Apr-17 21:30N 50°35' E 000°26'713.1
2018-Apr-17 21:00N 50°38' E 000°35'714.5
2018-Apr-17 20:30N 50°42' E 000°44'815.6
2018-Apr-17 20:01N 50°47' E 000°54'816.8
2018-Apr-17 19:30N 50°52' E 001°04'917.2
2018-Apr-17 18:57N 50°58' E 001°16'817.4
2018-Apr-17 18:30N 51°03' E 001°25'816.5
2018-Apr-17 18:01N 51°08' E 001°35'815.5
2018-Apr-17 17:30N 51°13' E 001°45'714.6
2018-Apr-17 17:00N 51°20' E 001°51'713.9
2018-Apr-17 16:30N 51°25' E 001°58'713.4
2018-Apr-17 16:00N 51°31' E 002°02'713.2
2018-Apr-17 15:30N 51°36' E 002°09'713.3
2018-Apr-17 15:00N 51°41' E 002°17'613.1
2018-Apr-17 14:30N 51°46' E 002°24'2113.3
2018-Apr-17 12:54N 52°05' E 002°39'615.1
2018-Apr-17 12:30N 52°11' E 002°38'1415.9
2018-Apr-17 11:38N 52°25' E 002°37'516.2
2018-Apr-17 11:21N 52°30' E 002°37'616.4
2018-Apr-17 11:00N 52°35' E 002°37'1516.6
2018-Apr-17 10:07N 52°50' E 002°38'216.7
2018-Apr-17 10:00N 52°52' E 002°38'46615.1
2018-Apr-16 03:05N 60°35' E 004°22'115.8
2018-Apr-16 03:00N 60°36' E 004°23'815.5
2018-Apr-16 02:30N 60°42' E 004°32'612.4
2018-Apr-16 02:00N 60°44' E 004°44'5 9.2
2018-Apr-16 01:30N 60°49' E 004°44'5 9.2
2018-Apr-16 01:00N 60°51' E 004°53'510.6
2018-Apr-16 00:30N 60°49' E 005°03'1 1.0
2018-Apr-15 23:58N 60°49' E 005°03'0 0.0
2018-Apr-15 23:28N 60°49' E 005°03'0 0.0
2018-Apr-15 22:58N 60°49' E 005°03'0 0.0
2018-Apr-15 22:28N 60°49' E 005°03'0 0.0
2018-Apr-15 21:58N 60°49' E 005°03'0 0.0
2018-Apr-15 21:28N 60°49' E 005°03'0 0.0
2018-Apr-15 20:58N 60°49' E 005°03'0 0.0
2018-Apr-15 20:28N 60°49' E 005°03'0 0.0
2018-Apr-15 19:58N 60°49' E 005°03'0 0.0
2018-Apr-15 19:28N 60°49' E 005°03'0 0.0
2018-Apr-15 18:58N 60°49' E 005°03'0 0.0
2018-Apr-15 18:28N 60°49' E 005°03'0 0.0
2018-Apr-15 17:58N 60°49' E 005°03'0 0.0
2018-Apr-15 17:28N 60°49' E 005°03'0 0.0
2018-Apr-15 16:58N 60°49' E 005°03'0 0.0
2018-Apr-15 16:28N 60°49' E 005°03'0 0.0
2018-Apr-15 15:58N 60°49' E 005°03'0 0.0
2018-Apr-15 15:28N 60°49' E 005°03'0 0.0
2018-Apr-15 14:58N 60°49' E 005°03'0 0.0
2018-Apr-15 14:28N 60°49' E 005°03'0 0.0
2018-Apr-15 13:58N 60°49' E 005°03'0 0.0
2018-Apr-15 13:28N 60°49' E 005°03'0 0.0
2018-Apr-15 12:58N 60°49' E 005°03'0 0.0
2018-Apr-15 12:28N 60°49' E 005°03'0 0.0
2018-Apr-15 11:58N 60°49' E 005°03'0 0.0
2018-Apr-15 11:28N 60°49' E 005°03'0 0.0
2018-Apr-15 10:55N 60°49' E 005°03'0 0.0
2018-Apr-15 10:28N 60°49' E 005°03'0 0.0
2018-Apr-15 09:58N 60°49' E 005°03'0 0.0
2018-Apr-15 09:28N 60°49' E 005°03'0 0.0
2018-Apr-15 08:58N 60°49' E 005°03'0 0.0
2018-Apr-15 08:28N 60°49' E 005°03'0 0.0
2018-Apr-15 07:58N 60°49' E 005°03'0 0.0
2018-Apr-15 07:28N 60°49' E 005°03'0 0.0
2018-Apr-15 06:58N 60°49' E 005°03'0 0.0
2018-Apr-15 06:28N 60°49' E 005°03'0 0.0
2018-Apr-15 05:58N 60°49' E 005°03'0 0.0
2018-Apr-15 05:28N 60°49' E 005°03'0 0.0
2018-Apr-15 04:58N 60°49' E 005°03'0 0.0
2018-Apr-15 04:28N 60°49' E 005°03'0 0.0
2018-Apr-15 03:58N 60°49' E 005°03'0 0.0
2018-Apr-15 03:28N 60°49' E 005°03'0 0.0
2018-Apr-15 02:58N 60°49' E 005°03'0 0.0
2018-Apr-15 02:28N 60°49' E 005°03'0 0.0
2018-Apr-15 01:58N 60°49' E 005°03'0 0.0
2018-Apr-15 01:28N 60°49' E 005°03'0 0.0
2018-Apr-15 00:58N 60°49' E 005°03'0 0.0
2018-Apr-15 00:25N 60°49' E 005°03'0 0.0
2018-Apr-14 23:58N 60°49' E 005°03'0 0.0
2018-Apr-14 23:28N 60°49' E 005°03'0 0.0
2018-Apr-14 22:58N 60°49' E 005°03'0 0.0
2018-Apr-14 22:28N 60°49' E 005°03'0 0.0
2018-Apr-14 21:58N 60°49' E 005°03'0 0.0
2018-Apr-14 21:28N 60°49' E 005°03'0 0.0
2018-Apr-14 20:58N 60°49' E 005°03'0 0.0
2018-Apr-14 20:28N 60°49' E 005°03'  

Dump ship's entire track history